createdAt,value
2022-12-03T00:00:56.534Z,6.92
2022-12-03T00:01:58.031Z,6.93
2022-12-03T00:02:59.670Z,6.97
2022-12-03T00:04:01.398Z,6.99
2022-12-03T00:05:02.953Z,6.95
2022-12-03T00:06:04.619Z,6.96
2022-12-03T00:07:06.865Z,6.97
2022-12-03T00:08:08.603Z,7.00
2022-12-03T00:09:10.185Z,7.02
2022-12-03T00:10:11.853Z,7.05
2022-12-03T00:11:13.519Z,7.01
2022-12-03T00:12:14.986Z,7.01
2022-12-03T00:13:16.472Z,7.00
2022-12-03T00:14:19.182Z,7.00
2022-12-03T00:15:20.629Z,7.00
2022-12-03T00:16:22.160Z,7.00
2022-12-03T00:17:23.744Z,7.00
2022-12-03T00:18:25.251Z,6.96
2022-12-03T00:19:26.746Z,6.91
2022-12-03T00:20:28.245Z,6.91
2022-12-03T00:21:29.736Z,6.91
2022-12-03T00:22:31.244Z,6.85
2022-12-03T00:23:35.968Z,6.86
2022-12-03T00:24:41.721Z,6.90
2022-12-03T00:25:43.208Z,6.92
2022-12-03T00:26:44.876Z,6.94
2022-12-03T00:27:47.398Z,6.91
2022-12-03T00:28:48.879Z,6.86
2022-12-03T00:29:50.426Z,6.81
2022-12-03T00:30:54.210Z,6.83
2022-12-03T00:31:55.748Z,6.86
2022-12-03T00:32:57.272Z,6.90
2022-12-03T00:33:58.768Z,6.87
2022-12-03T00:35:00.244Z,6.86
2022-12-03T00:36:01.757Z,6.84
2022-12-03T00:37:03.214Z,6.83
2022-12-03T00:38:04.721Z,6.84
2022-12-03T00:39:06.322Z,6.85
2022-12-03T00:40:08.128Z,6.83
2022-12-03T00:41:09.636Z,6.86
2022-12-03T00:42:11.114Z,6.89
2022-12-03T00:43:12.886Z,6.90
2022-12-03T00:44:14.403Z,6.92
2022-12-03T00:45:15.942Z,6.94
2022-12-03T00:46:21.300Z,6.95
2022-12-03T00:47:23.294Z,6.94
2022-12-03T00:48:24.826Z,6.95
2022-12-03T00:49:26.415Z,6.91
2022-12-03T00:50:27.935Z,6.89
2022-12-03T00:51:29.415Z,6.89
2022-12-03T00:52:30.918Z,6.85
2022-12-03T00:53:32.411Z,6.81
2022-12-03T00:54:34.514Z,6.79
2022-12-03T00:55:36.119Z,6.83
2022-12-03T00:56:37.588Z,6.86
2022-12-03T00:57:39.046Z,6.88
2022-12-03T00:58:40.563Z,6.91
2022-12-03T00:59:42.093Z,6.93
2022-12-03T01:00:43.566Z,6.89
2022-12-03T01:01:45.116Z,6.84
2022-12-03T01:02:46.625Z,6.85
2022-12-03T01:03:48.120Z,6.89
2022-12-03T01:04:49.700Z,6.92
2022-12-03T01:05:51.197Z,6.90
2022-12-03T01:06:52.641Z,6.93
2022-12-03T01:07:54.242Z,6.97
2022-12-03T01:08:55.782Z,6.95
2022-12-03T01:09:57.286Z,6.99
2022-12-03T01:10:58.787Z,6.99
2022-12-03T01:12:00.274Z,6.98
2022-12-03T01:13:01.720Z,6.98
2022-12-03T01:14:03.911Z,7.00
2022-12-03T01:15:05.717Z,6.98
2022-12-03T01:16:07.223Z,6.99
2022-12-03T01:17:08.776Z,6.99
2022-12-03T01:18:10.249Z,7.02
2022-12-03T01:19:15.784Z,7.03
2022-12-03T01:20:17.441Z,7.02
2022-12-03T01:21:19.324Z,6.98
2022-12-03T01:22:20.838Z,6.98
2022-12-03T01:23:22.318Z,7.00
2022-12-03T01:24:23.814Z,6.94
2022-12-03T01:25:25.608Z,6.96
2022-12-03T01:26:27.207Z,6.93
2022-12-03T01:27:28.669Z,6.92
2022-12-03T01:28:31.454Z,6.89
2022-12-03T01:29:32.982Z,6.89
2022-12-03T01:30:54.644Z,6.82
2022-12-03T01:32:14.889Z,6.81
2022-12-03T01:33:16.406Z,6.88
2022-12-03T01:34:18.129Z,6.84
2022-12-03T01:35:19.665Z,6.85
2022-12-03T01:36:21.281Z,6.84
2022-12-03T01:37:23.451Z,6.87
2022-12-03T01:38:24.928Z,6.89
2022-12-03T01:39:26.419Z,6.86
2022-12-03T01:40:27.855Z,6.89
2022-12-03T01:41:29.380Z,6.91
2022-12-03T01:42:32.558Z,6.88
2022-12-03T01:43:34.180Z,6.81
2022-12-03T01:44:35.713Z,6.81
2022-12-03T01:45:37.144Z,6.85
2022-12-03T01:46:39.172Z,6.84
2022-12-03T01:47:41.353Z,6.84
2022-12-03T01:48:42.872Z,6.79
2022-12-03T01:49:45.717Z,6.79
2022-12-03T01:50:47.182Z,6.82
2022-12-03T01:51:48.701Z,6.83
2022-12-03T01:52:50.148Z,6.74
2022-12-03T01:53:51.707Z,6.74
2022-12-03T01:54:54.418Z,6.75
2022-12-03T01:55:56.061Z,6.74
2022-12-03T01:56:57.610Z,6.73
2022-12-03T01:57:59.557Z,6.75
2022-12-03T01:59:01.043Z,6.70
2022-12-03T02:00:02.626Z,6.69
2022-12-03T02:01:07.093Z,6.70
2022-12-03T02:02:11.534Z,6.67
2022-12-03T02:03:15.730Z,6.66
2022-12-03T02:04:17.229Z,6.68
2022-12-03T02:05:21.631Z,6.69
2022-12-03T02:06:23.089Z,6.70
2022-12-03T02:07:27.215Z,6.70
2022-12-03T02:08:29.590Z,6.72
2022-12-03T02:09:31.081Z,6.73
2022-12-03T02:10:33.018Z,6.77
2022-12-03T02:11:37.797Z,6.75
2022-12-03T02:12:49.123Z,6.76
2022-12-03T02:13:51.166Z,6.79
2022-12-03T02:14:52.716Z,6.84
2022-12-03T02:15:54.511Z,6.88
2022-12-03T02:16:56.043Z,6.92
2022-12-03T02:17:57.743Z,6.93
2022-12-03T02:18:59.318Z,6.95
2022-12-03T02:20:01.708Z,6.95
2022-12-03T02:21:09.214Z,6.90
2022-12-03T02:22:16.731Z,6.91
2022-12-03T02:23:31.221Z,6.85
2022-12-03T02:24:41.750Z,6.90
2022-12-03T02:25:43.212Z,6.89
2022-12-03T02:26:44.785Z,6.85
2022-12-03T02:27:46.327Z,6.74
2022-12-03T02:28:47.788Z,6.75
2022-12-03T02:29:49.301Z,6.73
2022-12-03T02:30:50.800Z,6.78
2022-12-03T02:31:52.396Z,6.82
2022-12-03T02:32:54.089Z,6.81
2022-12-03T02:33:55.579Z,6.81
2022-12-03T02:34:57.058Z,6.78
2022-12-03T02:36:03.354Z,6.79
2022-12-03T02:37:06.064Z,6.78
2022-12-03T02:38:07.527Z,6.76
2022-12-03T02:39:09.001Z,6.75
2022-12-03T02:40:11.129Z,6.77
2022-12-03T02:41:33.159Z,6.78
2022-12-03T02:42:35.308Z,6.77
2022-12-03T02:43:36.806Z,6.77
2022-12-03T02:44:38.284Z,6.74
2022-12-03T02:45:40.226Z,6.74
2022-12-03T02:46:41.787Z,6.75
2022-12-03T02:47:47.360Z,6.76
2022-12-03T02:48:48.821Z,6.72
2022-12-03T02:49:50.309Z,6.73
2022-12-03T02:50:53.013Z,6.74
2022-12-03T02:51:54.445Z,6.74
2022-12-03T02:52:56.341Z,6.76
2022-12-03T02:53:57.857Z,6.74
2022-12-03T02:54:59.411Z,6.74
2022-12-03T02:56:01.380Z,6.75
2022-12-03T02:57:02.863Z,6.78
2022-12-03T02:58:04.553Z,6.79
2022-12-03T02:59:06.107Z,6.79
2022-12-03T03:00:08.397Z,6.77
2022-12-03T03:01:09.971Z,6.74
2022-12-03T03:02:12.724Z,6.70
2022-12-03T03:03:14.218Z,6.73
2022-12-03T03:04:15.669Z,6.74
2022-12-03T03:05:18.319Z,6.81
2022-12-03T03:06:19.781Z,6.77
2022-12-03T03:07:21.460Z,6.80
2022-12-03T03:08:23.069Z,6.84
2022-12-03T03:09:24.667Z,6.88
2022-12-03T03:10:26.241Z,6.85
2022-12-03T03:11:27.785Z,6.87
2022-12-03T03:12:29.262Z,6.88
2022-12-03T03:13:31.299Z,6.91
2022-12-03T03:14:32.956Z,6.92
2022-12-03T03:15:35.756Z,6.92
2022-12-03T03:16:37.368Z,6.85
2022-12-03T03:17:39.092Z,6.88
2022-12-03T03:18:40.790Z,6.84
2022-12-03T03:19:42.264Z,6.79
2022-12-03T03:20:43.827Z,6.74
2022-12-03T03:21:45.319Z,6.78
2022-12-03T03:22:46.789Z,6.78
2022-12-03T03:23:48.312Z,6.76
2022-12-03T03:24:49.985Z,6.75
2022-12-03T03:25:54.180Z,6.77
2022-12-03T03:26:56.685Z,6.77
2022-12-03T03:27:58.193Z,6.65
2022-12-03T03:29:00.585Z,6.79
2022-12-03T03:30:03.257Z,6.85
2022-12-03T03:31:05.082Z,6.84
2022-12-03T03:32:06.696Z,6.83
2022-12-03T03:33:08.198Z,6.83
2022-12-03T03:34:09.664Z,6.76
2022-12-03T03:35:11.518Z,6.77
2022-12-03T03:36:13.001Z,6.77
2022-12-03T03:37:15.275Z,6.73
2022-12-03T03:38:17.601Z,6.75
2022-12-03T03:39:19.053Z,6.75
2022-12-03T03:40:20.859Z,6.76
2022-12-03T03:41:22.397Z,6.74
2022-12-03T03:42:23.861Z,6.73
2022-12-03T03:43:25.536Z,6.72
2022-12-03T03:44:27.500Z,6.72
2022-12-03T03:45:29.719Z,6.74
2022-12-03T03:46:33.323Z,6.76
2022-12-03T03:47:34.840Z,6.79
2022-12-03T03:48:36.365Z,6.77
2022-12-03T03:49:37.883Z,6.77
2022-12-03T03:50:39.381Z,6.75
2022-12-03T03:51:40.921Z,6.74
2022-12-03T03:52:42.661Z,6.79
2022-12-03T03:53:44.650Z,6.79
2022-12-03T03:54:46.191Z,6.83
2022-12-03T03:55:47.736Z,6.75
2022-12-03T03:56:51.090Z,6.71
2022-12-03T03:57:52.592Z,6.72
2022-12-03T03:58:54.912Z,6.74
2022-12-03T03:59:57.501Z,6.79
2022-12-03T04:00:59.053Z,6.80
2022-12-03T04:02:00.657Z,6.83
2022-12-03T04:03:03.305Z,6.86
2022-12-03T04:04:07.312Z,6.87
2022-12-03T04:05:11.515Z,6.89
2022-12-03T04:06:14.332Z,6.89
2022-12-03T04:07:16.017Z,6.85
2022-12-03T04:08:17.751Z,6.88
2022-12-03T04:09:19.356Z,6.83
2022-12-03T04:10:39.497Z,6.80
2022-12-03T04:11:59.718Z,6.86
2022-12-03T04:13:01.186Z,6.90
2022-12-03T04:14:02.709Z,6.89
2022-12-03T04:15:05.334Z,6.90
2022-12-03T04:16:07.012Z,6.94
2022-12-03T04:17:08.558Z,6.96
2022-12-03T04:18:28.741Z,6.93
2022-12-03T04:19:30.226Z,6.95
2022-12-03T04:20:32.693Z,6.96
2022-12-03T04:21:53.037Z,6.95
2022-12-03T04:22:54.481Z,6.96
2022-12-03T04:23:55.994Z,6.96
2022-12-03T04:25:17.418Z,6.92
2022-12-03T04:26:37.575Z,6.84
2022-12-03T04:27:57.587Z,6.86
2022-12-03T04:28:59.140Z,6.89
2022-12-03T04:30:00.666Z,6.88
2022-12-03T04:31:22.217Z,6.85
2022-12-03T04:32:42.522Z,6.83
2022-12-03T04:34:02.945Z,6.79
2022-12-03T04:35:23.713Z,6.74
2022-12-03T04:36:25.326Z,6.73
2022-12-03T04:37:26.914Z,6.76
2022-12-03T04:38:28.385Z,6.82
2022-12-03T04:39:30.697Z,6.79
2022-12-03T04:40:50.898Z,6.83
2022-12-03T04:41:52.390Z,6.86
2022-12-03T04:42:53.876Z,6.89
2022-12-03T04:44:13.858Z,6.88
2022-12-03T04:45:15.348Z,6.87
2022-12-03T04:46:16.831Z,6.90
2022-12-03T04:47:19.205Z,6.91
2022-12-03T04:48:20.686Z,6.91
2022-12-03T04:49:22.246Z,6.95
2022-12-03T04:50:23.772Z,6.94
2022-12-03T04:51:25.275Z,6.94
2022-12-03T04:52:26.742Z,6.89
2022-12-03T04:53:28.289Z,6.92
2022-12-03T04:54:29.783Z,6.94
2022-12-03T04:55:31.226Z,6.96
2022-12-03T04:56:32.731Z,6.92
2022-12-03T04:57:34.198Z,6.95
2022-12-03T04:58:35.785Z,6.95
2022-12-03T04:59:37.427Z,6.97
2022-12-03T05:00:39.164Z,6.96
2022-12-03T05:01:40.761Z,6.96
2022-12-03T05:02:42.303Z,6.98
2022-12-03T05:03:43.809Z,6.94
2022-12-03T05:04:45.304Z,6.96
2022-12-03T05:05:46.802Z,7.00
2022-12-03T05:06:48.313Z,6.98
2022-12-03T05:07:49.932Z,6.96
2022-12-03T05:08:51.511Z,6.83
2022-12-03T05:09:52.973Z,6.93
2022-12-03T05:10:54.516Z,6.94
2022-12-03T05:11:56.638Z,6.92
2022-12-03T05:12:58.085Z,6.91
2022-12-03T05:13:59.606Z,6.94
2022-12-03T05:15:03.917Z,6.95
2022-12-03T05:16:05.473Z,6.99
2022-12-03T05:17:07.046Z,7.02
2022-12-03T05:18:08.573Z,7.02
2022-12-03T05:19:10.061Z,7.05
2022-12-03T05:20:30.317Z,6.99
2022-12-03T05:21:31.803Z,6.98
2022-12-03T05:22:33.266Z,7.03
2022-12-03T05:23:34.790Z,7.04
2022-12-03T05:24:36.230Z,7.02
2022-12-03T05:25:37.658Z,6.98
2022-12-03T05:26:39.210Z,6.99
2022-12-03T05:27:40.672Z,6.97
2022-12-03T05:28:42.160Z,7.00
2022-12-03T05:29:43.643Z,7.02
2022-12-03T05:30:45.207Z,7.02
2022-12-03T05:31:46.730Z,7.01
2022-12-03T05:32:48.248Z,7.03
2022-12-03T05:33:49.733Z,7.01
2022-12-03T05:34:51.416Z,6.99
2022-12-03T05:35:53.134Z,7.01
2022-12-03T05:36:54.626Z,7.04
2022-12-03T05:37:56.126Z,7.02
2022-12-03T05:38:57.601Z,7.03
2022-12-03T05:39:59.149Z,7.04
2022-12-03T05:41:00.593Z,7.04
2022-12-03T05:42:20.651Z,7.06
2022-12-03T05:43:22.123Z,7.01
2022-12-03T05:44:23.585Z,7.02
2022-12-03T05:45:25.690Z,7.05
2022-12-03T05:46:27.325Z,7.03
2022-12-03T05:47:29.826Z,7.01
2022-12-03T05:48:31.277Z,6.97
2022-12-03T05:49:32.819Z,7.01
2022-12-03T05:50:35.437Z,7.01
2022-12-03T05:51:50.560Z,6.99
2022-12-03T05:52:55.244Z,7.00
2022-12-03T05:53:56.778Z,6.95
2022-12-03T05:54:58.586Z,6.95
2022-12-03T05:56:00.080Z,6.97
2022-12-03T05:57:01.550Z,7.01
2022-12-03T05:58:03.193Z,7.04
2022-12-03T05:59:04.667Z,7.04
2022-12-03T06:00:07.039Z,7.06
2022-12-03T06:01:13.889Z,7.01
2022-12-03T06:02:15.526Z,6.96
2022-12-03T06:03:17.205Z,6.96
2022-12-03T06:04:18.843Z,6.93
2022-12-03T06:05:20.473Z,6.88
2022-12-03T06:06:21.933Z,6.92
2022-12-03T06:07:24.579Z,6.95
2022-12-03T06:08:26.320Z,6.94
2022-12-03T06:09:27.803Z,6.95
2022-12-03T06:10:29.465Z,6.94
2022-12-03T06:11:33.897Z,6.93
2022-12-03T06:12:35.546Z,6.96
2022-12-03T06:13:37.055Z,6.99
2022-12-03T06:14:38.553Z,7.01
2022-12-03T06:15:43.664Z,7.01
2022-12-03T06:16:45.614Z,7.05
2022-12-03T06:17:47.267Z,7.04
2022-12-03T06:18:48.803Z,6.98
2022-12-03T06:19:50.353Z,6.88
2022-12-03T06:20:51.851Z,6.95
2022-12-03T06:21:53.405Z,6.94
2022-12-03T06:22:54.865Z,6.92
2022-12-03T06:23:56.328Z,6.95
2022-12-03T06:25:02.071Z,6.98
2022-12-03T06:26:06.475Z,6.95
2022-12-03T06:27:07.963Z,6.97
2022-12-03T06:28:09.562Z,6.96
2022-12-03T06:29:11.032Z,6.91
2022-12-03T06:30:13.093Z,6.93
2022-12-03T06:31:14.712Z,6.98
2022-12-03T06:32:16.290Z,7.00
2022-12-03T06:33:17.816Z,7.00
2022-12-03T06:34:19.306Z,7.00
2022-12-03T06:35:20.887Z,7.00
2022-12-03T06:36:24.535Z,6.93
2022-12-03T06:37:25.980Z,6.91
2022-12-03T06:38:27.458Z,6.93
2022-12-03T06:39:28.983Z,6.90
2022-12-03T06:40:30.514Z,6.86
2022-12-03T06:41:32.050Z,6.79
2022-12-03T06:42:33.571Z,6.78
2022-12-03T06:43:35.060Z,6.81
2022-12-03T06:44:36.741Z,6.79
2022-12-03T06:45:40.089Z,6.84
2022-12-03T06:46:44.845Z,6.87
2022-12-03T06:47:46.397Z,6.84
2022-12-03T06:48:47.907Z,6.85
2022-12-03T06:49:49.489Z,6.81
2022-12-03T06:50:50.955Z,6.78
2022-12-03T06:51:52.680Z,6.80
2022-12-03T06:52:54.162Z,6.70
2022-12-03T06:53:55.633Z,6.70
2022-12-03T06:54:57.483Z,6.67
2022-12-03T06:55:58.994Z,6.66
2022-12-03T06:57:00.588Z,6.69
2022-12-03T06:58:02.091Z,6.73
2022-12-03T06:59:03.533Z,6.74
2022-12-03T07:00:05.732Z,6.75
2022-12-03T07:01:07.339Z,6.80
2022-12-03T07:02:09.476Z,6.78
2022-12-03T07:03:11.136Z,6.77
2022-12-03T07:04:12.850Z,6.78
2022-12-03T07:05:14.351Z,6.75
2022-12-03T07:06:15.852Z,6.77
2022-12-03T07:07:17.356Z,6.77
2022-12-03T07:08:19.005Z,6.75
2022-12-03T07:09:20.549Z,6.78
2022-12-03T07:10:22.099Z,6.77
2022-12-03T07:11:32.657Z,6.77
2022-12-03T07:12:34.125Z,6.77
2022-12-03T07:13:35.661Z,6.77
2022-12-03T07:14:37.117Z,6.78
2022-12-03T07:15:38.642Z,6.74
2022-12-03T07:16:40.328Z,6.76
2022-12-03T07:17:41.909Z,6.74
2022-12-03T07:18:43.427Z,6.73
2022-12-03T07:19:44.874Z,6.73
2022-12-03T07:20:46.387Z,6.69
2022-12-03T07:21:47.837Z,6.74
2022-12-03T07:22:49.336Z,6.76
2022-12-03T07:23:50.818Z,6.76
2022-12-03T07:24:52.928Z,6.76
2022-12-03T07:25:54.985Z,6.79
2022-12-03T07:26:56.979Z,6.82
2022-12-03T07:27:58.597Z,6.84
2022-12-03T07:29:00.193Z,6.86
2022-12-03T07:30:01.675Z,6.88
2022-12-03T07:31:03.231Z,6.89
2022-12-03T07:32:04.955Z,6.69
2022-12-03T07:33:06.419Z,6.85
2022-12-03T07:34:08.095Z,6.87
2022-12-03T07:35:09.689Z,6.89
2022-12-03T07:36:11.181Z,6.89
2022-12-03T07:37:12.666Z,6.92
2022-12-03T07:38:15.097Z,6.93
2022-12-03T07:39:16.663Z,6.96
2022-12-03T07:40:18.136Z,6.95
2022-12-03T07:41:19.877Z,6.98
2022-12-03T07:42:21.400Z,7.01
2022-12-03T07:43:22.935Z,7.02
2022-12-03T07:44:24.419Z,7.04
2022-12-03T07:45:25.924Z,7.02
2022-12-03T07:46:27.486Z,7.01
2022-12-03T07:47:29.049Z,7.02
2022-12-03T07:48:30.539Z,6.96
2022-12-03T07:49:33.123Z,6.98
2022-12-03T07:50:34.646Z,6.99
2022-12-03T07:51:36.154Z,6.97
2022-12-03T07:52:37.744Z,6.96
2022-12-03T07:53:39.246Z,6.95
2022-12-03T07:54:40.817Z,6.94
2022-12-03T07:55:42.319Z,6.93
2022-12-03T07:56:43.779Z,6.97
2022-12-03T07:57:45.250Z,6.98
2022-12-03T07:58:46.701Z,7.00
2022-12-03T07:59:48.222Z,7.03
2022-12-03T08:00:49.798Z,7.04
2022-12-03T08:01:51.447Z,7.05
2022-12-03T08:02:53.055Z,7.03
2022-12-03T08:03:54.557Z,7.05
2022-12-03T08:04:56.449Z,7.06
2022-12-03T08:05:58.076Z,7.06
2022-12-03T08:06:59.524Z,7.07
2022-12-03T08:08:01.369Z,7.06
2022-12-03T08:09:02.963Z,7.04
2022-12-03T08:10:04.930Z,7.05
2022-12-03T08:11:06.487Z,7.06
2022-12-03T08:12:13.227Z,7.04
2022-12-03T08:13:14.985Z,7.05
2022-12-03T08:14:17.247Z,7.07
2022-12-03T08:15:19.742Z,7.09
2022-12-03T08:16:21.738Z,7.07
2022-12-03T08:17:23.267Z,7.03
2022-12-03T08:18:24.804Z,7.06
2022-12-03T08:19:26.315Z,7.07
2022-12-03T08:20:28.581Z,7.08
2022-12-03T08:21:30.101Z,7.09
2022-12-03T08:22:31.582Z,7.08
2022-12-03T08:23:33.737Z,7.05
2022-12-03T08:24:35.270Z,7.08
2022-12-03T08:25:36.734Z,7.08
2022-12-03T08:26:38.209Z,7.12
2022-12-03T08:27:39.731Z,7.14
2022-12-03T08:28:41.227Z,7.15
2022-12-03T08:29:42.734Z,7.17
2022-12-03T08:30:44.545Z,7.18
2022-12-03T08:31:47.504Z,7.21
2022-12-03T08:32:49.078Z,7.25
2022-12-03T08:33:51.575Z,7.24
2022-12-03T08:34:53.258Z,7.20
2022-12-03T08:35:54.923Z,7.23
2022-12-03T08:36:58.126Z,7.24
2022-12-03T08:38:01.531Z,7.26
2022-12-03T08:39:07.034Z,7.27
2022-12-03T08:40:18.754Z,7.27
2022-12-03T08:41:40.354Z,7.24
2022-12-03T08:42:41.894Z,7.26
2022-12-03T08:43:44.268Z,7.23
2022-12-03T08:44:45.780Z,7.19
2022-12-03T08:45:49.750Z,7.21
2022-12-03T08:47:20.771Z,7.25
2022-12-03T08:48:24.782Z,7.29
2022-12-03T08:49:26.261Z,7.30
2022-12-03T08:50:31.378Z,7.32
2022-12-03T08:51:32.852Z,7.35
2022-12-03T08:52:34.611Z,7.33
2022-12-03T08:53:36.851Z,7.36
2022-12-03T08:54:38.318Z,7.36
2022-12-03T08:55:46.169Z,7.38
2022-12-03T08:56:47.642Z,7.38
2022-12-03T08:57:49.217Z,7.41
2022-12-03T08:58:53.740Z,7.43
2022-12-03T08:59:59.706Z,7.43
2022-12-03T09:01:10.680Z,7.45
2022-12-03T09:02:13.559Z,7.41
2022-12-03T09:03:16.295Z,7.31
2022-12-03T09:04:26.498Z,7.32
2022-12-03T09:05:29.216Z,7.33
2022-12-03T09:06:30.697Z,7.36
2022-12-03T09:07:32.293Z,7.40
2022-12-03T09:08:33.862Z,7.40
2022-12-03T09:09:35.801Z,7.40
2022-12-03T09:10:37.865Z,7.43
2022-12-03T09:11:39.552Z,7.43
2022-12-03T09:12:41.089Z,7.44
2022-12-03T09:13:42.617Z,7.44
2022-12-03T09:14:44.087Z,7.45
2022-12-03T09:15:45.589Z,7.45
2022-12-03T09:16:47.802Z,7.46
2022-12-03T09:17:49.614Z,7.41
2022-12-03T09:18:51.105Z,7.39
2022-12-03T09:19:52.773Z,7.41
2022-12-03T09:20:54.229Z,7.46
2022-12-03T09:21:55.834Z,7.45
2022-12-03T09:22:57.385Z,7.46
2022-12-03T09:23:58.854Z,7.43
2022-12-03T09:25:00.366Z,7.45
2022-12-03T09:26:01.846Z,7.49
2022-12-03T09:27:03.331Z,7.50
2022-12-03T09:28:04.862Z,7.52
2022-12-03T09:29:11.723Z,7.53
2022-12-03T09:30:13.853Z,7.50
2022-12-03T09:31:15.699Z,7.51
2022-12-03T09:32:18.763Z,7.51
2022-12-03T09:33:20.559Z,7.54
2022-12-03T09:34:22.118Z,7.57
2022-12-03T09:35:23.599Z,7.58
2022-12-03T09:36:25.119Z,7.59
2022-12-03T09:37:26.687Z,7.61
2022-12-03T09:38:28.166Z,7.63
2022-12-03T09:39:29.600Z,7.63
2022-12-03T09:40:31.114Z,7.65
2022-12-03T09:41:32.577Z,7.66
2022-12-03T09:42:34.110Z,7.68
2022-12-03T09:44:02.822Z,7.65
2022-12-03T09:44:57.192Z,7.70
2022-12-03T09:45:58.770Z,7.73
2022-12-03T09:47:00.714Z,7.72
2022-12-03T09:48:03.238Z,7.74
2022-12-03T09:49:05.138Z,7.78
2022-12-03T09:50:06.935Z,7.80
2022-12-03T09:51:09.430Z,7.84
2022-12-03T09:52:12.099Z,7.84
2022-12-03T09:53:14.805Z,7.83
2022-12-03T09:54:25.964Z,7.87
2022-12-03T09:55:27.578Z,7.86
2022-12-03T09:56:29.056Z,7.88
2022-12-03T09:57:30.588Z,7.92
2022-12-03T09:58:34.889Z,7.93
2022-12-03T09:59:36.679Z,7.96
2022-12-03T10:00:38.194Z,7.96
2022-12-03T10:01:39.744Z,7.98
2022-12-03T10:02:41.263Z,8.02
2022-12-03T10:03:49.763Z,8.03
2022-12-03T10:04:51.469Z,8.05
2022-12-03T10:05:53.269Z,8.05
2022-12-03T10:06:54.737Z,8.08
2022-12-03T10:07:57.295Z,8.05
2022-12-03T10:09:00.042Z,8.06
2022-12-03T10:10:01.478Z,7.99
2022-12-03T10:11:04.044Z,8.01
2022-12-03T10:12:05.659Z,8.03
2022-12-03T10:13:07.485Z,7.96
2022-12-03T10:14:10.721Z,8.04
2022-12-03T10:15:16.435Z,7.96
2022-12-03T10:16:19.067Z,7.93
2022-12-03T10:17:20.612Z,7.93
2022-12-03T10:18:24.043Z,7.95
2022-12-03T10:19:26.401Z,7.96
2022-12-03T10:20:27.864Z,7.92
2022-12-03T10:21:34.704Z,7.89
2022-12-03T10:22:37.421Z,7.91
2022-12-03T10:23:39.192Z,7.94
2022-12-03T10:24:40.849Z,7.95
2022-12-03T10:25:52.209Z,7.99
2022-12-03T10:26:54.497Z,8.02
2022-12-03T10:27:56.962Z,8.04
2022-12-03T10:28:58.410Z,8.08
2022-12-03T10:30:00.650Z,8.11
2022-12-03T10:31:03.044Z,8.14
2022-12-03T10:32:05.522Z,8.18
2022-12-03T10:33:14.445Z,8.22
2022-12-03T10:34:35.960Z,8.22
2022-12-03T10:35:39.696Z,8.21
2022-12-03T10:36:41.261Z,8.09
2022-12-03T10:38:00.855Z,8.15
2022-12-03T10:39:06.453Z,8.17
2022-12-03T10:40:09.340Z,8.16
2022-12-03T10:41:24.459Z,8.19
2022-12-03T10:42:26.909Z,8.24
2022-12-03T10:43:28.406Z,8.28
2022-12-03T10:44:33.637Z,8.30
2022-12-03T10:45:35.092Z,8.31
2022-12-03T10:46:36.734Z,8.34
2022-12-03T10:47:38.470Z,8.38
2022-12-03T10:48:40.043Z,8.40
2022-12-03T10:49:41.629Z,8.39
2022-12-03T10:50:53.572Z,8.43
2022-12-03T10:51:55.093Z,8.43
2022-12-03T10:52:56.631Z,8.43
2022-12-03T10:53:58.171Z,8.40
2022-12-03T10:54:59.615Z,8.44
2022-12-03T10:56:01.970Z,8.38
2022-12-03T10:57:04.789Z,8.41
2022-12-03T10:58:06.499Z,8.46
2022-12-03T10:59:10.159Z,8.48
2022-12-03T11:00:14.934Z,8.49
2022-12-03T11:01:20.164Z,8.49
2022-12-03T11:02:22.650Z,8.52
2022-12-03T11:03:27.912Z,8.54
2022-12-03T11:04:33.249Z,8.55
2022-12-03T11:05:34.715Z,8.62
2022-12-03T11:06:36.168Z,8.68
2022-12-03T11:07:37.900Z,8.72
2022-12-03T11:08:39.460Z,8.77
2022-12-03T11:09:42.277Z,8.76
2022-12-03T11:10:45.007Z,8.80
2022-12-03T11:11:46.528Z,8.83
2022-12-03T11:13:06.748Z,8.85
2022-12-03T11:14:09.600Z,8.90
2022-12-03T11:15:14.404Z,8.93
2022-12-03T11:16:35.895Z,8.97
2022-12-03T11:17:43.924Z,8.96
2022-12-03T11:18:45.608Z,8.99
2022-12-03T11:19:47.161Z,9.03
2022-12-03T11:20:48.606Z,9.03
2022-12-03T11:22:05.578Z,9.08
2022-12-03T11:23:07.082Z,9.10
2022-12-03T11:24:15.712Z,9.13
2022-12-03T11:25:29.428Z,9.18
2022-12-03T11:26:30.929Z,9.22
2022-12-03T11:27:32.365Z,9.24
2022-12-03T11:28:34.613Z,9.29
2022-12-03T11:29:49.642Z,9.33
2022-12-03T11:30:51.257Z,9.36
2022-12-03T11:31:55.709Z,9.39
2022-12-03T11:32:57.177Z,9.42
2022-12-03T11:34:31.556Z,9.46
2022-12-03T11:35:38.436Z,9.48
2022-12-03T11:37:01.873Z,9.49
2022-12-03T11:38:22.357Z,9.43
2022-12-03T11:39:42.696Z,9.40
2022-12-03T11:40:57.637Z,9.40
2022-12-03T11:42:25.259Z,9.38
2022-12-03T11:43:45.425Z,9.39
2022-12-03T11:44:46.863Z,9.38
2022-12-03T11:45:48.375Z,9.37
2022-12-03T11:46:49.942Z,9.38
2022-12-03T11:48:00.564Z,9.39
2022-12-03T11:49:02.285Z,9.40
2022-12-03T11:50:15.890Z,9.39
2022-12-03T11:51:17.706Z,9.41
2022-12-03T11:52:27.130Z,9.39
2022-12-03T11:53:28.827Z,9.39
2022-12-03T11:54:32.678Z,9.37
2022-12-03T11:55:35.747Z,9.34
2022-12-03T11:56:37.316Z,9.34
2022-12-03T11:57:43.055Z,9.38
2022-12-03T11:58:45.317Z,9.39
2022-12-03T12:00:03.889Z,9.40
2022-12-03T12:01:13.713Z,9.39
2022-12-03T12:02:19.352Z,9.34
2022-12-03T12:03:21.795Z,9.32
2022-12-03T12:04:32.312Z,9.30
2022-12-03T12:05:33.945Z,9.33
2022-12-03T12:06:42.467Z,9.31
2022-12-03T12:07:47.833Z,9.30
2022-12-03T12:08:49.414Z,9.27
2022-12-03T12:09:52.069Z,9.29
2022-12-03T12:10:53.907Z,9.31
2022-12-03T12:11:55.410Z,9.26
2022-12-03T12:12:57.340Z,9.26
2022-12-03T12:14:01.344Z,9.25
2022-12-03T12:15:23.109Z,9.22
2022-12-03T12:16:43.420Z,9.25
2022-12-03T12:17:44.988Z,9.26
2022-12-03T12:18:53.704Z,9.25
2022-12-03T12:20:19.054Z,9.21
2022-12-03T12:21:42.419Z,9.20
2022-12-03T12:22:44.237Z,9.13
2022-12-03T12:23:45.722Z,9.12
2022-12-03T12:24:48.297Z,9.10
2022-12-03T12:25:54.089Z,9.09
2022-12-03T12:26:56.468Z,9.10
2022-12-03T12:27:57.975Z,9.11
2022-12-03T12:28:59.434Z,9.13
2022-12-03T12:30:05.471Z,9.16
2022-12-03T12:31:10.807Z,9.14
2022-12-03T12:32:13.015Z,9.16
2022-12-03T12:33:24.365Z,9.14
2022-12-03T12:34:25.867Z,9.08
2022-12-03T12:35:30.798Z,9.10
2022-12-03T12:36:33.897Z,9.12
2022-12-03T12:37:36.535Z,9.09
2022-12-03T12:38:38.067Z,9.09
2022-12-03T12:39:39.669Z,9.06
2022-12-03T12:40:41.931Z,9.07
2022-12-03T12:41:43.408Z,9.04
2022-12-03T12:42:58.460Z,9.03
2022-12-03T12:44:00.963Z,9.04
2022-12-03T12:45:11.478Z,8.99
2022-12-03T12:46:46.041Z,8.97
2022-12-03T12:47:35.630Z,8.96
2022-12-03T12:48:37.470Z,8.95
2022-12-03T12:49:38.989Z,8.93
2022-12-03T12:50:40.929Z,8.94
2022-12-03T12:51:45.809Z,8.96
2022-12-03T12:52:50.498Z,9.00
2022-12-03T12:53:53.545Z,9.00
2022-12-03T12:54:55.053Z,8.98
2022-12-03T12:55:56.523Z,9.00
2022-12-03T12:56:58.014Z,9.00
2022-12-03T12:58:02.500Z,8.95
2022-12-03T12:59:10.565Z,8.97
2022-12-03T13:00:18.891Z,9.00
2022-12-03T13:01:21.398Z,9.01
2022-12-03T13:02:28.850Z,8.99
2022-12-03T13:03:33.819Z,8.97
2022-12-03T13:04:39.978Z,8.93
2022-12-03T13:05:42.474Z,8.95
2022-12-03T13:06:44.058Z,8.95
2022-12-03T13:07:45.650Z,8.95
2022-12-03T13:08:47.524Z,8.96
2022-12-03T13:09:54.758Z,8.94
2022-12-03T13:11:02.806Z,8.91
2022-12-03T13:12:04.594Z,8.93
2022-12-03T13:13:25.545Z,8.95
2022-12-03T13:14:31.348Z,8.97
2022-12-03T13:15:40.696Z,8.95
2022-12-03T13:16:42.306Z,8.88
2022-12-03T13:17:43.885Z,8.90
2022-12-03T13:18:55.071Z,8.92
2022-12-03T13:20:06.679Z,8.87
2022-12-03T13:21:21.098Z,8.85
2022-12-03T13:22:22.728Z,8.87
2022-12-03T13:23:27.183Z,8.91
2022-12-03T13:24:32.250Z,8.89
2022-12-03T13:25:58.259Z,8.89
2022-12-03T13:26:55.825Z,8.87
2022-12-03T13:27:57.301Z,8.89
2022-12-03T13:28:58.910Z,8.90
2022-12-03T13:30:08.382Z,8.88
2022-12-03T13:31:19.949Z,8.91
2022-12-03T13:32:30.946Z,8.90
2022-12-03T13:33:32.458Z,8.91
2022-12-03T13:34:34.340Z,8.91
2022-12-03T13:35:36.326Z,8.93
2022-12-03T13:36:42.017Z,8.95
2022-12-03T13:37:43.574Z,8.88
2022-12-03T13:38:45.179Z,8.89
2022-12-03T13:39:47.794Z,8.92
2022-12-03T13:40:51.914Z,8.92
2022-12-03T13:42:12.032Z,8.87
2022-12-03T13:43:16.442Z,8.86
2022-12-03T13:44:18.536Z,8.89
2022-12-03T13:45:29.091Z,8.92
2022-12-03T13:46:31.052Z,8.93
2022-12-03T13:47:32.594Z,8.94
2022-12-03T13:48:37.252Z,8.95
2022-12-03T13:49:38.842Z,8.91
2022-12-03T13:50:46.667Z,8.94
2022-12-03T13:51:48.242Z,8.93
2022-12-03T13:52:49.845Z,8.95
2022-12-03T13:53:51.422Z,8.96
2022-12-03T13:54:53.722Z,8.97
2022-12-03T13:55:57.369Z,8.98
2022-12-03T13:57:00.279Z,8.81
2022-12-03T13:58:01.802Z,8.93
2022-12-03T13:59:04.360Z,8.97
2022-12-03T14:00:06.176Z,8.99
2022-12-03T14:01:13.937Z,9.01
2022-12-03T14:02:15.762Z,9.03
2022-12-03T14:03:17.621Z,9.05
2022-12-03T14:04:19.065Z,9.03
2022-12-03T14:05:21.918Z,8.99
2022-12-03T14:06:23.381Z,8.94